sensor_id;sensor_type;location;lat;lon;timestamp;temperature;humidity
45619;DHT22;31343;47.520;19.144;2023-04-09T00:02:17;5.10;99.90
45619;DHT22;31343;47.520;19.144;2023-04-09T00:04:43;5.00;99.90
45619;DHT22;31343;47.520;19.144;2023-04-09T00:07:09;5.10;99.90
45619;DHT22;31343;47.520;19.144;2023-04-09T00:09:35;5.00;99.90
45619;DHT22;31343;47.520;19.144;2023-04-09T00:12:01;5.00;99.90
45619;DHT22;31343;47.520;19.144;2023-04-09T00:14:28;5.00;99.90
45619;DHT22;31343;47.520;19.144;2023-04-09T00:16:53;5.10;99.90
45619;DHT22;31343;47.520;19.144;2023-04-09T00:19:19;5.10;99.90
45619;DHT22;31343;47.520;19.144;2023-04-09T00:21:46;5.10;99.90
45619;DHT22;31343;47.520;19.144;2023-04-09T00:24:13;5.10;99.90
45619;DHT22;31343;47.520;19.144;2023-04-09T00:26:38;5.10;99.90
45619;DHT22;31343;47.520;19.144;2023-04-09T00:29:04;5.20;99.90
45619;DHT22;31343;47.520;19.144;2023-04-09T00:31:30;5.20;99.90
45619;DHT22;31343;47.520;19.144;2023-04-09T00:33:57;5.20;99.90
45619;DHT22;31343;47.520;19.144;2023-04-09T00:36:23;5.20;99.90
45619;DHT22;31343;47.520;19.144;2023-04-09T00:38:49;5.20;99.90
45619;DHT22;31343;47.520;19.144;2023-04-09T00:41:16;5.30;99.90
45619;DHT22;31343;47.520;19.144;2023-04-09T00:43:42;5.30;99.90
45619;DHT22;31343;47.520;19.144;2023-04-09T00:46:08;5.30;99.90
45619;DHT22;31343;47.520;19.144;2023-04-09T00:48:33;5.30;99.90
45619;DHT22;31343;47.520;19.144;2023-04-09T00:51:01;5.30;99.90
45619;DHT22;31343;47.520;19.144;2023-04-09T00:53:27;5.30;99.90
45619;DHT22;31343;47.520;19.144;2023-04-09T00:55:54;5.30;99.90
45619;DHT22;31343;47.520;19.144;2023-04-09T00:58:21;5.30;99.90
45619;DHT22;31343;47.520;19.144;2023-04-09T01:00:47;5.30;99.90
45619;DHT22;31343;47.520;19.144;2023-04-09T01:03:12;5.30;99.90
45619;DHT22;31343;47.520;19.144;2023-04-09T01:08:31;5.40;99.90
45619;DHT22;31343;47.520;19.144;2023-04-09T01:11:23;5.40;99.90
45619;DHT22;31343;47.520;19.144;2023-04-09T01:14:13;5.40;99.90
45619;DHT22;31343;47.520;19.144;2023-04-09T01:16:43;5.40;99.90
45619;DHT22;31343;47.520;19.144;2023-04-09T01:22:31;5.40;99.90
45619;DHT22;31343;47.520;19.144;2023-04-09T01:28:41;5.40;99.90
45619;DHT22;31343;47.520;19.144;2023-04-09T01:31:13;5.40;99.90
45619;DHT22;31343;47.520;19.144;2023-04-09T01:33:43;5.40;99.90
45619;DHT22;31343;47.520;19.144;2023-04-09T01:36:09;5.40;99.90
45619;DHT22;31343;47.520;19.144;2023-04-09T01:38:38;5.30;99.90
45619;DHT22;31343;47.520;19.144;2023-04-09T01:41:05;5.30;99.90
45619;DHT22;31343;47.520;19.144;2023-04-09T01:43:32;5.30;99.90
45619;DHT22;31343;47.520;19.144;2023-04-09T01:46:00;5.40;99.90
45619;DHT22;31343;47.520;19.144;2023-04-09T01:48:28;5.30;99.90
45619;DHT22;31343;47.520;19.144;2023-04-09T01:50:54;5.40;99.90
45619;DHT22;31343;47.520;19.144;2023-04-09T01:53:21;5.40;99.90
45619;DHT22;31343;47.520;19.144;2023-04-09T01:55:46;5.40;99.90
45619;DHT22;31343;47.520;19.144;2023-04-09T01:58:13;5.50;99.90
45619;DHT22;31343;47.520;19.144;2023-04-09T02:00:44;5.50;99.90
45619;DHT22;31343;47.520;19.144;2023-04-09T02:03:23;5.40;99.90
45619;DHT22;31343;47.520;19.144;2023-04-09T02:06:04;5.30;99.90
45619;DHT22;31343;47.520;19.144;2023-04-09T02:08:33;5.30;99.90
45619;DHT22;31343;47.520;19.144;2023-04-09T02:11:03;5.30;99.90
45619;DHT22;31343;47.520;19.144;2023-04-09T02:13:31;5.40;99.90
45619;DHT22;31343;47.520;19.144;2023-04-09T02:16:00;5.40;99.90
45619;DHT22;31343;47.520;19.144;2023-04-09T02:18:28;5.40;99.90
45619;DHT22;31343;47.520;19.144;2023-04-09T02:20:58;5.40;99.90
45619;DHT22;31343;47.520;19.144;2023-04-09T02:23:24;5.40;99.90
45619;DHT22;31343;47.520;19.144;2023-04-09T02:25:52;5.40;99.90
45619;DHT22;31343;47.520;19.144;2023-04-09T02:28:18;5.40;99.90
45619;DHT22;31343;47.520;19.144;2023-04-09T02:30:44;5.20;99.90
45619;DHT22;31343;47.520;19.144;2023-04-09T02:33:10;5.20;99.90
45619;DHT22;31343;47.520;19.144;2023-04-09T02:35:36;5.20;99.90
45619;DHT22;31343;47.520;19.144;2023-04-09T02:38:02;5.20;99.90
45619;DHT22;31343;47.520;19.144;2023-04-09T02:40:28;5.20;99.90
45619;DHT22;31343;47.520;19.144;2023-04-09T02:42:53;5.10;99.90
45619;DHT22;31343;47.520;19.144;2023-04-09T02:45:19;5.20;99.90
45619;DHT22;31343;47.520;19.144;2023-04-09T02:47:45;5.10;99.90
45619;DHT22;31343;47.520;19.144;2023-04-09T02:50:11;5.20;99.90
45619;DHT22;31343;47.520;19.144;2023-04-09T02:52:36;5.20;99.90
45619;DHT22;31343;47.520;19.144;2023-04-09T02:55:02;5.20;99.90
45619;DHT22;31343;47.520;19.144;2023-04-09T02:57:28;5.20;99.90
45619;DHT22;31343;47.520;19.144;2023-04-09T02:59:54;5.00;99.90
45619;DHT22;31343;47.520;19.144;2023-04-09T03:02:20;5.10;99.90
45619;DHT22;31343;47.520;19.144;2023-04-09T03:04:45;5.20;99.90
45619;DHT22;31343;47.520;19.144;2023-04-09T03:07:11;5.30;99.90
45619;DHT22;31343;47.520;19.144;2023-04-09T03:09:37;5.30;99.90
45619;DHT22;31343;47.520;19.144;2023-04-09T03:12:03;5.30;99.90
45619;DHT22;31343;47.520;19.144;2023-04-09T03:14:28;5.30;99.90
45619;DHT22;31343;47.520;19.144;2023-04-09T03:16:54;5.30;99.90
45619;DHT22;31343;47.520;19.144;2023-04-09T03:19:20;5.10;99.90
45619;DHT22;31343;47.520;19.144;2023-04-09T03:21:46;5.10;99.90
45619;DHT22;31343;47.520;19.144;2023-04-09T03:24:13;5.10;99.90
45619;DHT22;31343;47.520;19.144;2023-04-09T03:26:40;5.10;99.90
45619;DHT22;31343;47.520;19.144;2023-04-09T03:29:06;5.20;99.90
45619;DHT22;31343;47.520;19.144;2023-04-09T03:31:32;5.20;99.90
45619;DHT22;31343;47.520;19.144;2023-04-09T03:33:57;5.30;99.90
45619;DHT22;31343;47.520;19.144;2023-04-09T03:36:23;5.30;99.90
45619;DHT22;31343;47.520;19.144;2023-04-09T03:38:49;5.30;99.90
45619;DHT22;31343;47.520;19.144;2023-04-09T03:41:15;5.30;99.90
45619;DHT22;31343;47.520;19.144;2023-04-09T03:43:41;5.30;99.90
45619;DHT22;31343;47.520;19.144;2023-04-09T03:46:25;5.30;99.90
45619;DHT22;31343;47.520;19.144;2023-04-09T03:48:50;5.20;99.90
45619;DHT22;31343;47.520;19.144;2023-04-09T03:51:17;5.30;99.90
45619;DHT22;31343;47.520;19.144;2023-04-09T03:53:43;5.30;99.90
45619;DHT22;31343;47.520;19.144;2023-04-09T03:56:09;5.30;99.90
45619;DHT22;31343;47.520;19.144;2023-04-09T03:58:36;5.30;99.90
45619;DHT22;31343;47.520;19.144;2023-04-09T04:01:02;5.20;99.90
45619;DHT22;31343;47.520;19.144;2023-04-09T04:03:28;5.20;99.90
45619;DHT22;31343;47.520;19.144;2023-04-09T04:06:04;5.20;99.90
45619;DHT22;31343;47.520;19.144;2023-04-09T04:08:30;5.30;99.90
45619;DHT22;31343;47.520;19.144;2023-04-09T04:11:02;5.30;99.90
45619;DHT22;31343;47.520;19.144;2023-04-09T04:13:28;5.30;99.90
45619;DHT22;31343;47.520;19.144;2023-04-09T04:15:53;5.40;99.90
45619;DHT22;31343;47.520;19.144;2023-04-09T04:18:19;5.40;99.90
45619;DHT22;31343;47.520;19.144;2023-04-09T04:20:45;5.30;99.90
45619;DHT22;31343;47.520;19.144;2023-04-09T04:23:11;5.40;99.90
45619;DHT22;31343;47.520;19.144;2023-04-09T04:25:40;5.50;99.90
45619;DHT22;31343;47.520;19.144;2023-04-09T04:28:07;5.40;99.90
45619;DHT22;31343;47.520;19.144;2023-04-09T04:30:33;5.40;99.90
45619;DHT22;31343;47.520;19.144;2023-04-09T04:32:59;5.50;99.90
45619;DHT22;31343;47.520;19.144;2023-04-09T04:35:25;5.50;99.90
45619;DHT22;31343;47.520;19.144;2023-04-09T04:37:51;5.60;99.90
45619;DHT22;31343;47.520;19.144;2023-04-09T04:40:16;5.40;99.90
45619;DHT22;31343;47.520;19.144;2023-04-09T04:42:42;5.40;99.90
45619;DHT22;31343;47.520;19.144;2023-04-09T04:45:08;5.40;99.90
45619;DHT22;31343;47.520;19.144;2023-04-09T04:47:34;5.50;99.90
45619;DHT22;31343;47.520;19.144;2023-04-09T04:50:00;5.60;99.90
45619;DHT22;31343;47.520;19.144;2023-04-09T04:52:26;5.50;99.90
45619;DHT22;31343;47.520;19.144;2023-04-09T04:54:51;5.50;99.90
45619;DHT22;31343;47.520;19.144;2023-04-09T04:57:17;5.50;99.90
45619;DHT22;31343;47.520;19.144;2023-04-09T04:59:43;5.50;99.90
45619;DHT22;31343;47.520;19.144;2023-04-09T05:02:09;5.50;99.90
45619;DHT22;31343;47.520;19.144;2023-04-09T05:04:34;5.50;99.90
45619;DHT22;31343;47.520;19.144;2023-04-09T05:07:01;5.50;99.90
45619;DHT22;31343;47.520;19.144;2023-04-09T05:09:27;5.60;99.90
45619;DHT22;31343;47.520;19.144;2023-04-09T05:11:53;5.70;99.90
45619;DHT22;31343;47.520;19.144;2023-04-09T05:14:18;5.70;99.90
45619;DHT22;31343;47.520;19.144;2023-04-09T05:16:46;5.70;99.90
45619;DHT22;31343;47.520;19.144;2023-04-09T05:19:12;5.70;99.90
45619;DHT22;31343;47.520;19.144;2023-04-09T05:21:38;5.70;99.90
45619;DHT22;31343;47.520;19.144;2023-04-09T05:24:04;5.80;99.90
45619;DHT22;31343;47.520;19.144;2023-04-09T05:26:30;5.80;99.90
45619;DHT22;31343;47.520;19.144;2023-04-09T05:28:56;5.80;99.90
45619;DHT22;31343;47.520;19.144;2023-04-09T05:31:22;5.90;99.90
45619;DHT22;31343;47.520;19.144;2023-04-09T05:33:48;5.80;99.90
45619;DHT22;31343;47.520;19.144;2023-04-09T05:36:15;5.90;99.90
45619;DHT22;31343;47.520;19.144;2023-04-09T05:38:42;6.00;99.90
45619;DHT22;31343;47.520;19.144;2023-04-09T05:41:09;5.90;99.90
45619;DHT22;31343;47.520;19.144;2023-04-09T05:43:35;5.90;99.90
45619;DHT22;31343;47.520;19.144;2023-04-09T05:46:00;6.00;99.90
45619;DHT22;31343;47.520;19.144;2023-04-09T05:48:26;6.10;99.90
45619;DHT22;31343;47.520;19.144;2023-04-09T05:50:52;6.10;99.90
45619;DHT22;31343;47.520;19.144;2023-04-09T05:53:18;6.20;99.90
45619;DHT22;31343;47.520;19.144;2023-04-09T05:55:46;6.30;99.90
45619;DHT22;31343;47.520;19.144;2023-04-09T05:58:13;6.30;99.90
45619;DHT22;31343;47.520;19.144;2023-04-09T06:00:40;6.30;99.90
45619;DHT22;31343;47.520;19.144;2023-04-09T06:05:53;6.40;99.90
45619;DHT22;31343;47.520;19.144;2023-04-09T06:08:18;6.50;99.90
45619;DHT22;31343;47.520;19.144;2023-04-09T06:10:45;6.50;99.90
45619;DHT22;31343;47.520;19.144;2023-04-09T06:13:10;6.50;99.90
45619;DHT22;31343;47.520;19.144;2023-04-09T06:15:39;6.60;99.90
45619;DHT22;31343;47.520;19.144;2023-04-09T06:18:05;6.60;99.90
45619;DHT22;31343;47.520;19.144;2023-04-09T06:20:31;6.60;99.90
45619;DHT22;31343;47.520;19.144;2023-04-09T06:22:59;6.60;99.90
45619;DHT22;31343;47.520;19.144;2023-04-09T06:25:31;6.60;99.90
45619;DHT22;31343;47.520;19.144;2023-04-09T06:27:57;6.70;99.90
45619;DHT22;31343;47.520;19.144;2023-04-09T06:30:26;6.70;99.90
45619;DHT22;31343;47.520;19.144;2023-04-09T06:32:51;6.70;99.90
45619;DHT22;31343;47.520;19.144;2023-04-09T06:35:17;6.80;99.90
45619;DHT22;31343;47.520;19.144;2023-04-09T06:37:43;6.80;99.90
45619;DHT22;31343;47.520;19.144;2023-04-09T06:40:09;7.00;99.90
45619;DHT22;31343;47.520;19.144;2023-04-09T06:42:35;7.00;99.90
45619;DHT22;31343;47.520;19.144;2023-04-09T06:45:00;6.90;99.90
45619;DHT22;31343;47.520;19.144;2023-04-09T06:47:26;6.90;99.90
45619;DHT22;31343;47.520;19.144;2023-04-09T06:49:52;7.00;99.90
45619;DHT22;31343;47.520;19.144;2023-04-09T06:52:18;7.00;99.90
45619;DHT22;31343;47.520;19.144;2023-04-09T06:54:43;7.00;99.90
45619;DHT22;31343;47.520;19.144;2023-04-09T06:57:10;7.00;99.90
45619;DHT22;31343;47.520;19.144;2023-04-09T06:59:36;7.00;99.90
45619;DHT22;31343;47.520;19.144;2023-04-09T07:02:02;7.00;99.90
45619;DHT22;31343;47.520;19.144;2023-04-09T07:04:28;7.00;99.90
45619;DHT22;31343;47.520;19.144;2023-04-09T07:06:53;7.10;99.90
45619;DHT22;31343;47.520;19.144;2023-04-09T07:09:21;7.10;99.90
45619;DHT22;31343;47.520;19.144;2023-04-09T07:11:46;7.10;99.90
45619;DHT22;31343;47.520;19.144;2023-04-09T07:14:12;7.20;99.90
45619;DHT22;31343;47.520;19.144;2023-04-09T07:16:38;7.20;99.90
45619;DHT22;31343;47.520;19.144;2023-04-09T07:19:04;7.30;99.90
45619;DHT22;31343;47.520;19.144;2023-04-09T07:21:32;7.30;99.90
45619;DHT22;31343;47.520;19.144;2023-04-09T07:23:57;7.30;99.90
45619;DHT22;31343;47.520;19.144;2023-04-09T07:26:24;7.40;99.90
45619;DHT22;31343;47.520;19.144;2023-04-09T07:28:50;7.50;99.90
45619;DHT22;31343;47.520;19.144;2023-04-09T07:31:16;7.60;99.90
45619;DHT22;31343;47.520;19.144;2023-04-09T07:33:42;7.70;99.90
45619;DHT22;31343;47.520;19.144;2023-04-09T07:36:07;7.90;99.90
45619;DHT22;31343;47.520;19.144;2023-04-09T07:38:33;7.80;99.90
45619;DHT22;31343;47.520;19.144;2023-04-09T07:40:59;7.90;99.90
45619;DHT22;31343;47.520;19.144;2023-04-09T07:43:25;8.10;99.90
45619;DHT22;31343;47.520;19.144;2023-04-09T07:45:51;8.20;99.90
45619;DHT22;31343;47.520;19.144;2023-04-09T07:48:17;8.30;99.90
45619;DHT22;31343;47.520;19.144;2023-04-09T07:50:42;8.40;99.90
45619;DHT22;31343;47.520;19.144;2023-04-09T07:53:10;8.60;99.90
45619;DHT22;31343;47.520;19.144;2023-04-09T07:55:36;8.70;99.90
45619;DHT22;31343;47.520;19.144;2023-04-09T07:58:02;8.90;99.90
45619;DHT22;31343;47.520;19.144;2023-04-09T08:00:29;9.00;99.90
45619;DHT22;31343;47.520;19.144;2023-04-09T08:02:55;9.00;99.90
45619;DHT22;31343;47.520;19.144;2023-04-09T08:05:22;9.10;99.90
45619;DHT22;31343;47.520;19.144;2023-04-09T08:07:49;9.40;99.90
45619;DHT22;31343;47.520;19.144;2023-04-09T08:10:14;9.40;99.90
45619;DHT22;31343;47.520;19.144;2023-04-09T08:12:41;9.40;99.90
45619;DHT22;31343;47.520;19.144;2023-04-09T08:15:08;9.50;99.90
45619;DHT22;31343;47.520;19.144;2023-04-09T08:17:34;9.70;99.90
45619;DHT22;31343;47.520;19.144;2023-04-09T08:20:03;9.80;99.90
45619;DHT22;31343;47.520;19.144;2023-04-09T08:22:29;9.90;99.90
45619;DHT22;31343;47.520;19.144;2023-04-09T08:24:55;9.90;99.90
45619;DHT22;31343;47.520;19.144;2023-04-09T08:27:22;9.90;99.90
45619;DHT22;31343;47.520;19.144;2023-04-09T08:29:48;9.90;99.90
45619;DHT22;31343;47.520;19.144;2023-04-09T08:32:14;10.00;99.90
45619;DHT22;31343;47.520;19.144;2023-04-09T08:34:40;10.10;99.90
45619;DHT22;31343;47.520;19.144;2023-04-09T08:37:06;10.30;99.90
45619;DHT22;31343;47.520;19.144;2023-04-09T08:39:32;10.40;99.90
45619;DHT22;31343;47.520;19.144;2023-04-09T08:41:59;10.30;99.90
45619;DHT22;31343;47.520;19.144;2023-04-09T08:44:27;10.20;99.90
45619;DHT22;31343;47.520;19.144;2023-04-09T08:46:53;10.30;99.90
45619;DHT22;31343;47.520;19.144;2023-04-09T08:49:19;10.40;99.90
45619;DHT22;31343;47.520;19.144;2023-04-09T08:51:49;10.20;99.90
45619;DHT22;31343;47.520;19.144;2023-04-09T08:54:16;10.30;99.90
45619;DHT22;31343;47.520;19.144;2023-04-09T08:56:45;10.30;99.90
45619;DHT22;31343;47.520;19.144;2023-04-09T08:59:14;10.40;99.90
45619;DHT22;31343;47.520;19.144;2023-04-09T09:01:42;10.50;99.90
45619;DHT22;31343;47.520;19.144;2023-04-09T09:04:08;10.60;99.90
45619;DHT22;31343;47.520;19.144;2023-04-09T09:06:36;10.70;99.90
45619;DHT22;31343;47.520;19.144;2023-04-09T09:09:12;11.00;99.90
45619;DHT22;31343;47.520;19.144;2023-04-09T09:11:40;11.10;99.90
45619;DHT22;31343;47.520;19.144;2023-04-09T09:14:10;11.20;99.90
45619;DHT22;31343;47.520;19.144;2023-04-09T09:16:39;11.00;99.90
45619;DHT22;31343;47.520;19.144;2023-04-09T09:22:06;11.00;99.90
45619;DHT22;31343;47.520;19.144;2023-04-09T09:24:47;10.50;99.90
45619;DHT22;31343;47.520;19.144;2023-04-09T09:27:34;10.60;99.90
45619;DHT22;31343;47.520;19.144;2023-04-09T09:30:07;9.80;99.90
45619;DHT22;31343;47.520;19.144;2023-04-09T09:32:35;9.30;99.90
45619;DHT22;31343;47.520;19.144;2023-04-09T09:35:05;9.10;99.90
45619;DHT22;31343;47.520;19.144;2023-04-09T09:37:32;9.20;99.90
45619;DHT22;31343;47.520;19.144;2023-04-09T09:39:59;9.40;99.90
45619;DHT22;31343;47.520;19.144;2023-04-09T09:42:25;9.60;99.90
45619;DHT22;31343;47.520;19.144;2023-04-09T09:44:54;9.70;99.90
45619;DHT22;31343;47.520;19.144;2023-04-09T09:47:21;9.90;99.90
45619;DHT22;31343;47.520;19.144;2023-04-09T09:49:48;9.90;99.90
45619;DHT22;31343;47.520;19.144;2023-04-09T09:52:17;9.90;99.90
45619;DHT22;31343;47.520;19.144;2023-04-09T09:54:47;10.00;99.90
45619;DHT22;31343;47.520;19.144;2023-04-09T09:57:18;10.00;99.90
45619;DHT22;31343;47.520;19.144;2023-04-09T09:59:55;10.00;99.90
45619;DHT22;31343;47.520;19.144;2023-04-09T10:02:26;10.00;99.90
45619;DHT22;31343;47.520;19.144;2023-04-09T10:04:59;9.90;99.90
45619;DHT22;31343;47.520;19.144;2023-04-09T10:07:25;10.00;99.90
45619;DHT22;31343;47.520;19.144;2023-04-09T10:09:53;9.80;99.90
45619;DHT22;31343;47.520;19.144;2023-04-09T10:12:21;9.90;99.90
45619;DHT22;31343;47.520;19.144;2023-04-09T10:14:48;9.80;99.90
45619;DHT22;31343;47.520;19.144;2023-04-09T10:17:16;9.60;99.90
45619;DHT22;31343;47.520;19.144;2023-04-09T10:19:46;9.70;99.90
45619;DHT22;31343;47.520;19.144;2023-04-09T10:22:17;9.80;99.90
45619;DHT22;31343;47.520;19.144;2023-04-09T10:24:44;10.10;99.90
45619;DHT22;31343;47.520;19.144;2023-04-09T10:27:12;10.30;99.90
45619;DHT22;31343;47.520;19.144;2023-04-09T10:29:45;10.40;99.90
45619;DHT22;31343;47.520;19.144;2023-04-09T10:32:12;10.50;99.90
45619;DHT22;31343;47.520;19.144;2023-04-09T10:34:42;10.50;99.90
45619;DHT22;31343;47.520;19.144;2023-04-09T10:37:23;10.80;99.90
45619;DHT22;31343;47.520;19.144;2023-04-09T10:39:50;11.00;99.90
45619;DHT22;31343;47.520;19.144;2023-04-09T10:42:28;11.00;99.90
45619;DHT22;31343;47.520;19.144;2023-04-09T10:45:10;10.70;99.90
45619;DHT22;31343;47.520;19.144;2023-04-09T10:47:38;10.50;99.90
45619;DHT22;31343;47.520;19.144;2023-04-09T10:50:26;10.50;99.90
45619;DHT22;31343;47.520;19.144;2023-04-09T10:52:56;10.80;99.90
45619;DHT22;31343;47.520;19.144;2023-04-09T10:55:36;10.80;99.90
45619;DHT22;31343;47.520;19.144;2023-04-09T10:58:03;10.70;99.90
45619;DHT22;31343;47.520;19.144;2023-04-09T11:00:29;10.70;99.90
45619;DHT22;31343;47.520;19.144;2023-04-09T11:05:33;10.50;99.90
45619;DHT22;31343;47.520;19.144;2023-04-09T11:10:33;10.30;99.90
45619;DHT22;31343;47.520;19.144;2023-04-09T11:12:59;10.30;99.90
45619;DHT22;31343;47.520;19.144;2023-04-09T11:15:26;10.30;99.90
45619;DHT22;31343;47.520;19.144;2023-04-09T11:17:51;10.20;99.90
45619;DHT22;31343;47.520;19.144;2023-04-09T11:20:22;10.20;99.90
45619;DHT22;31343;47.520;19.144;2023-04-09T11:22:49;10.20;99.90
45619;DHT22;31343;47.520;19.144;2023-04-09T11:25:34;10.00;99.90
45619;DHT22;31343;47.520;19.144;2023-04-09T11:28:02;9.70;99.90
45619;DHT22;31343;47.520;19.144;2023-04-09T11:30:29;9.70;99.90
45619;DHT22;31343;47.520;19.144;2023-04-09T11:32:55;9.90;99.90
45619;DHT22;31343;47.520;19.144;2023-04-09T11:35:21;10.20;99.90
45619;DHT22;31343;47.520;19.144;2023-04-09T11:37:48;10.30;99.90
45619;DHT22;31343;47.520;19.144;2023-04-09T11:40:20;10.50;99.90
45619;DHT22;31343;47.520;19.144;2023-04-09T11:42:49;10.70;99.90
45619;DHT22;31343;47.520;19.144;2023-04-09T11:45:16;10.80;99.90
45619;DHT22;31343;47.520;19.144;2023-04-09T11:47:43;11.00;99.90
45619;DHT22;31343;47.520;19.144;2023-04-09T11:50:10;11.10;99.90
45619;DHT22;31343;47.520;19.144;2023-04-09T11:52:36;10.80;99.90
45619;DHT22;31343;47.520;19.144;2023-04-09T11:55:03;10.70;99.90
45619;DHT22;31343;47.520;19.144;2023-04-09T11:57:42;10.70;99.90
45619;DHT22;31343;47.520;19.144;2023-04-09T12:00:12;10.60;99.90
45619;DHT22;31343;47.520;19.144;2023-04-09T12:02:44;11.00;99.90
45619;DHT22;31343;47.520;19.144;2023-04-09T12:05:19;11.40;99.90
45619;DHT22;31343;47.520;19.144;2023-04-09T12:07:45;11.90;99.90
45619;DHT22;31343;47.520;19.144;2023-04-09T12:10:11;12.30;99.90
45619;DHT22;31343;47.520;19.144;2023-04-09T12:12:44;12.50;99.80
45619;DHT22;31343;47.520;19.144;2023-04-09T12:15:31;13.20;99.80
45619;DHT22;31343;47.520;19.144;2023-04-09T12:17:57;13.70;98.20
45619;DHT22;31343;47.520;19.144;2023-04-09T12:20:31;13.90;97.70
45619;DHT22;31343;47.520;19.144;2023-04-09T12:22:58;13.90;96.00
45619;DHT22;31343;47.520;19.144;2023-04-09T12:25:33;13.90;96.70
45619;DHT22;31343;47.520;19.144;2023-04-09T12:28:00;14.60;96.00
45619;DHT22;31343;47.520;19.144;2023-04-09T12:30:26;14.70;95.20
45619;DHT22;31343;47.520;19.144;2023-04-09T12:32:52;15.00;94.00
45619;DHT22;31343;47.520;19.144;2023-04-09T12:35:19;14.60;94.80
45619;DHT22;31343;47.520;19.144;2023-04-09T12:37:45;14.50;95.00
45619;DHT22;31343;47.520;19.144;2023-04-09T12:40:11;14.40;94.40
45619;DHT22;31343;47.520;19.144;2023-04-09T12:42:41;13.90;94.80
45619;DHT22;31343;47.520;19.144;2023-04-09T12:45:11;13.90;94.80
45619;DHT22;31343;47.520;19.144;2023-04-09T12:47:37;13.40;96.10
45619;DHT22;31343;47.520;19.144;2023-04-09T12:50:05;14.50;95.30
45619;DHT22;31343;47.520;19.144;2023-04-09T12:52:32;15.50;93.30
45619;DHT22;31343;47.520;19.144;2023-04-09T12:54:59;16.20;91.30
45619;DHT22;31343;47.520;19.144;2023-04-09T12:57:25;16.60;91.30
45619;DHT22;31343;47.520;19.144;2023-04-09T12:59:51;16.20;90.40
45619;DHT22;31343;47.520;19.144;2023-04-09T13:02:18;15.60;90.30
45619;DHT22;31343;47.520;19.144;2023-04-09T13:04:44;14.60;90.40
45619;DHT22;31343;47.520;19.144;2023-04-09T13:07:10;14.00;91.60
45619;DHT22;31343;47.520;19.144;2023-04-09T13:09:36;13.30;92.70
45619;DHT22;31343;47.520;19.144;2023-04-09T13:12:02;13.20;93.20
45619;DHT22;31343;47.520;19.144;2023-04-09T13:14:29;13.30;93.60
45619;DHT22;31343;47.520;19.144;2023-04-09T13:16:55;13.40;93.60
45619;DHT22;31343;47.520;19.144;2023-04-09T13:19:21;13.40;93.90
45619;DHT22;31343;47.520;19.144;2023-04-09T13:21:47;13.80;94.50
45619;DHT22;31343;47.520;19.144;2023-04-09T13:24:12;14.00;93.10
45619;DHT22;31343;47.520;19.144;2023-04-09T13:26:38;13.90;93.60
45619;DHT22;31343;47.520;19.144;2023-04-09T13:29:04;13.70;92.90
45619;DHT22;31343;47.520;19.144;2023-04-09T13:31:29;13.40;92.90
45619;DHT22;31343;47.520;19.144;2023-04-09T13:33:55;13.60;93.00
45619;DHT22;31343;47.520;19.144;2023-04-09T13:36:21;13.50;93.30
45619;DHT22;31343;47.520;19.144;2023-04-09T13:38:48;13.70;93.30
45619;DHT22;31343;47.520;19.144;2023-04-09T13:41:14;13.90;93.40
45619;DHT22;31343;47.520;19.144;2023-04-09T13:43:39;14.10;93.40
45619;DHT22;31343;47.520;19.144;2023-04-09T13:46:05;14.10;93.30
45619;DHT22;31343;47.520;19.144;2023-04-09T13:48:31;13.30;92.50
45619;DHT22;31343;47.520;19.144;2023-04-09T13:50:57;13.30;93.10
45619;DHT22;31343;47.520;19.144;2023-04-09T13:53:22;13.50;93.30
45619;DHT22;31343;47.520;19.144;2023-04-09T13:55:49;13.80;93.70
45619;DHT22;31343;47.520;19.144;2023-04-09T13:58:16;13.80;93.50
45619;DHT22;31343;47.520;19.144;2023-04-09T14:00:42;13.80;93.80
45619;DHT22;31343;47.520;19.144;2023-04-09T14:03:08;13.90;93.50
45619;DHT22;31343;47.520;19.144;2023-04-09T14:05:34;14.30;93.40
45619;DHT22;31343;47.520;19.144;2023-04-09T14:08:00;14.50;92.70
45619;DHT22;31343;47.520;19.144;2023-04-09T14:10:25;13.90;91.80
45619;DHT22;31343;47.520;19.144;2023-04-09T14:12:52;13.50;91.90
45619;DHT22;31343;47.520;19.144;2023-04-09T14:15:18;13.50;92.20
45619;DHT22;31343;47.520;19.144;2023-04-09T14:17:43;13.10;92.50
45619;DHT22;31343;47.520;19.144;2023-04-09T14:20:09;13.30;93.70
45619;DHT22;31343;47.520;19.144;2023-04-09T14:22:35;13.70;93.40
45619;DHT22;31343;47.520;19.144;2023-04-09T14:25:01;13.50;92.40
45619;DHT22;31343;47.520;19.144;2023-04-09T14:27:26;13.70;93.80
45619;DHT22;31343;47.520;19.144;2023-04-09T14:29:52;13.80;93.70
45619;DHT22;31343;47.520;19.144;2023-04-09T14:32:18;13.80;93.40
45619;DHT22;31343;47.520;19.144;2023-04-09T14:34:44;13.70;93.50
45619;DHT22;31343;47.520;19.144;2023-04-09T14:37:10;13.50;93.40
45619;DHT22;31343;47.520;19.144;2023-04-09T14:39:36;13.40;93.30
45619;DHT22;31343;47.520;19.144;2023-04-09T14:42:02;13.30;93.30
45619;DHT22;31343;47.520;19.144;2023-04-09T14:44:28;13.10;94.10
45619;DHT22;31343;47.520;19.144;2023-04-09T14:46:54;12.90;94.00
45619;DHT22;31343;47.520;19.144;2023-04-09T14:49:20;12.60;94.20
45619;DHT22;31343;47.520;19.144;2023-04-09T14:51:46;12.60;95.00
45619;DHT22;31343;47.520;19.144;2023-04-09T14:54:12;12.60;95.00
45619;DHT22;31343;47.520;19.144;2023-04-09T14:56:38;12.30;94.70
45619;DHT22;31343;47.520;19.144;2023-04-09T14:59:03;12.10;96.10
45619;DHT22;31343;47.520;19.144;2023-04-09T15:01:29;12.10;95.60
45619;DHT22;31343;47.520;19.144;2023-04-09T15:03:55;12.10;95.70
45619;DHT22;31343;47.520;19.144;2023-04-09T15:06:21;11.90;97.30
45619;DHT22;31343;47.520;19.144;2023-04-09T15:08:48;11.80;96.30
45619;DHT22;31343;47.520;19.144;2023-04-09T15:11:17;11.80;96.90
45619;DHT22;31343;47.520;19.144;2023-04-09T15:13:43;11.80;97.30
45619;DHT22;31343;47.520;19.144;2023-04-09T15:16:19;11.80;96.90
45619;DHT22;31343;47.520;19.144;2023-04-09T15:18:44;11.80;97.50
45619;DHT22;31343;47.520;19.144;2023-04-09T15:21:11;11.70;98.30
45619;DHT22;31343;47.520;19.144;2023-04-09T15:23:37;11.80;98.50
45619;DHT22;31343;47.520;19.144;2023-04-09T15:26:03;11.80;98.50
45619;DHT22;31343;47.520;19.144;2023-04-09T15:28:29;11.70;99.80
45619;DHT22;31343;47.520;19.144;2023-04-09T15:30:55;11.70;98.80
45619;DHT22;31343;47.520;19.144;2023-04-09T15:33:21;11.50;97.90
45619;DHT22;31343;47.520;19.144;2023-04-09T15:35:46;11.50;98.60
45619;DHT22;31343;47.520;19.144;2023-04-09T15:38:12;11.50;99.90
45619;DHT22;31343;47.520;19.144;2023-04-09T15:40:39;11.60;98.80
45619;DHT22;31343;47.520;19.144;2023-04-09T15:43:06;11.60;98.70
45619;DHT22;31343;47.520;19.144;2023-04-09T15:45:31;11.40;98.30
45619;DHT22;31343;47.520;19.144;2023-04-09T15:47:57;11.50;98.70